createdAt,value
2023-02-21T00:00:51.620Z,51.86
2023-02-21T00:02:11.959Z,51.57
2023-02-21T00:03:32.073Z,51.33
2023-02-21T00:04:52.154Z,51.49
2023-02-21T00:06:12.828Z,51.25
2023-02-21T00:07:32.966Z,51.10
2023-02-21T00:08:53.277Z,51.14
2023-02-21T00:10:13.594Z,51.63
2023-02-21T00:11:34.268Z,52.44
2023-02-21T00:12:54.395Z,51.73
2023-02-21T00:14:14.440Z,51.48
2023-02-21T00:15:34.691Z,51.51
2023-02-21T00:16:54.953Z,51.87
2023-02-21T00:18:15.030Z,51.62
2023-02-21T00:19:35.310Z,51.97
2023-02-21T00:20:55.605Z,51.51
2023-02-21T00:22:15.927Z,51.60
2023-02-21T00:23:35.943Z,52.07
2023-02-21T00:24:55.982Z,52.05
2023-02-21T00:26:16.272Z,52.46
2023-02-21T00:27:36.592Z,53.22
2023-02-21T00:28:56.985Z,53.07
2023-02-21T00:30:17.350Z,52.91
2023-02-21T00:31:38.290Z,52.76
2023-02-21T00:32:58.735Z,53.46
2023-02-21T00:34:18.739Z,52.90
2023-02-21T00:35:38.940Z,52.91
2023-02-21T00:36:59.674Z,52.75
2023-02-21T00:38:19.902Z,52.82
2023-02-21T00:39:40.166Z,53.15
2023-02-21T00:41:00.254Z,52.95
2023-02-21T00:42:20.408Z,53.42
2023-02-21T00:43:47.345Z,53.26
2023-02-21T00:45:07.641Z,53.40
2023-02-21T00:46:27.872Z,53.77
2023-02-21T00:47:48.010Z,52.78
2023-02-21T00:49:08.193Z,53.20
2023-02-21T00:50:28.159Z,53.37
2023-02-21T00:51:48.390Z,53.21
2023-02-21T00:53:08.834Z,52.85
2023-02-21T00:54:29.175Z,53.70
2023-02-21T00:55:49.571Z,53.47
2023-02-21T00:57:09.738Z,54.01
2023-02-21T00:58:29.848Z,53.36
2023-02-21T00:59:50.005Z,53.34
2023-02-21T01:01:09.932Z,54.01
2023-02-21T01:02:30.235Z,53.79
2023-02-21T01:03:51.968Z,53.41
2023-02-21T01:05:12.398Z,53.30
2023-02-21T01:06:32.629Z,53.88
2023-02-21T01:07:52.846Z,53.44
2023-02-21T01:09:13.128Z,53.30
2023-02-21T01:10:33.207Z,53.93
2023-02-21T01:11:53.189Z,54.47
2023-02-21T01:13:13.357Z,53.59
2023-02-21T01:14:33.852Z,53.34
2023-02-21T01:15:54.005Z,53.62
2023-02-21T01:17:14.105Z,53.86
2023-02-21T01:18:34.295Z,53.54
2023-02-21T01:19:54.382Z,53.73
2023-02-21T01:21:14.636Z,54.18
2023-02-21T01:22:34.921Z,54.54
2023-02-21T01:23:55.531Z,54.63
2023-02-21T01:25:15.699Z,54.67
2023-02-21T01:26:35.909Z,54.34
2023-02-21T01:27:55.704Z,54.38
2023-02-21T01:29:15.916Z,54.57
2023-02-21T01:30:36.491Z,54.62
2023-02-21T01:31:56.729Z,55.39
2023-02-21T01:33:16.975Z,54.85
2023-02-21T01:34:37.139Z,54.98
2023-02-21T01:35:57.265Z,55.71
2023-02-21T01:37:17.562Z,55.28
2023-02-21T01:38:37.723Z,56.29
2023-02-21T01:39:58.108Z,56.22
2023-02-21T01:41:18.261Z,55.35
2023-02-21T01:42:38.320Z,55.48
2023-02-21T01:44:14.184Z,56.06
2023-02-21T01:45:39.891Z,56.15
2023-02-21T01:47:00.358Z,55.84
2023-02-21T01:48:20.653Z,56.60
2023-02-21T01:49:40.865Z,57.16
2023-02-21T01:51:00.810Z,57.23
2023-02-21T01:52:21.206Z,57.26
2023-02-21T01:53:42.501Z,56.99
2023-02-21T01:55:04.911Z,57.81
2023-02-21T01:56:25.264Z,57.01
2023-02-21T01:57:45.638Z,56.98
2023-02-21T01:59:05.718Z,57.31
2023-02-21T02:00:27.617Z,56.49
2023-02-21T02:02:04.362Z,57.04
2023-02-21T02:03:26.742Z,56.58
2023-02-21T02:04:47.107Z,57.34
2023-02-21T02:06:08.812Z,57.11
2023-02-21T02:07:29.039Z,57.27
2023-02-21T02:08:49.972Z,57.15
2023-02-21T02:10:10.204Z,56.96
2023-02-21T02:12:04.675Z,57.44
2023-02-21T02:13:42.157Z,56.30
2023-02-21T02:14:48.820Z,55.71
2023-02-21T02:16:02.611Z,56.76
2023-02-21T02:17:16.666Z,56.48
2023-02-21T02:18:46.282Z,55.69
2023-02-21T02:20:06.373Z,55.36
2023-02-21T02:21:32.329Z,55.46
2023-02-21T02:23:07.560Z,56.25
2023-02-21T02:24:18.101Z,56.02
2023-02-21T02:25:43.840Z,56.38
2023-02-21T02:27:15.848Z,57.09
2023-02-21T02:28:42.284Z,56.82
2023-02-21T02:29:48.593Z,56.86
2023-02-21T02:31:04.394Z,56.75
2023-02-21T02:32:31.963Z,57.34
2023-02-21T02:33:58.538Z,57.06
2023-02-21T02:35:18.418Z,56.48
2023-02-21T02:36:28.700Z,56.51
2023-02-21T02:37:39.698Z,57.12
2023-02-21T02:38:59.262Z,57.66
2023-02-21T02:40:21.346Z,57.26
2023-02-21T02:41:42.172Z,56.73
2023-02-21T02:43:12.748Z,56.27
2023-02-21T02:44:26.926Z,55.76
2023-02-21T02:45:43.037Z,55.83
2023-02-21T02:46:44.568Z,56.73
2023-02-21T02:47:46.261Z,57.03
2023-02-21T02:48:51.290Z,56.77
2023-02-21T02:49:52.824Z,56.42
2023-02-21T02:50:54.416Z,56.89
2023-02-21T02:51:55.974Z,57.70
2023-02-21T02:53:01.406Z,56.64
2023-02-21T02:54:02.985Z,56.47
2023-02-21T02:55:34.452Z,56.42
2023-02-21T02:56:37.024Z,56.90
2023-02-21T02:57:42.084Z,57.32
2023-02-21T02:58:54.243Z,57.13
2023-02-21T02:59:55.852Z,57.31
2023-02-21T03:01:07.840Z,57.53
2023-02-21T03:02:34.518Z,57.35
2023-02-21T03:03:59.171Z,56.44
2023-02-21T03:05:03.159Z,56.75
2023-02-21T03:06:13.787Z,56.84
2023-02-21T03:07:45.893Z,57.83
2023-02-21T03:09:00.573Z,58.28
2023-02-21T03:10:14.018Z,58.42
2023-02-21T03:11:20.272Z,58.79
2023-02-21T03:12:55.863Z,58.55
2023-02-21T03:14:15.071Z,58.68
2023-02-21T03:15:25.921Z,58.51
2023-02-21T03:16:32.129Z,58.28
2023-02-21T03:17:53.287Z,58.22
2023-02-21T03:19:04.250Z,58.65
2023-02-21T03:20:06.046Z,58.00
2023-02-21T03:21:16.976Z,58.41
2023-02-21T03:22:20.053Z,58.11
2023-02-21T03:23:21.538Z,58.18
2023-02-21T03:24:23.246Z,58.32
2023-02-21T03:25:24.840Z,57.82
2023-02-21T03:26:27.533Z,57.18
2023-02-21T03:27:29.827Z,57.18
2023-02-21T03:28:31.448Z,57.39
2023-02-21T03:29:34.042Z,57.04
2023-02-21T03:30:35.573Z,57.08
2023-02-21T03:31:41.679Z,56.96
2023-02-21T03:32:48.899Z,56.91
2023-02-21T03:33:50.389Z,56.23
2023-02-21T03:34:51.912Z,56.44
2023-02-21T03:35:53.754Z,57.42
2023-02-21T03:36:55.786Z,56.95
2023-02-21T03:37:57.632Z,57.42
2023-02-21T03:38:59.130Z,57.37
2023-02-21T03:40:00.722Z,56.69
2023-02-21T03:41:02.196Z,57.37
2023-02-21T03:42:03.753Z,56.94
2023-02-21T03:43:08.386Z,57.47
2023-02-21T03:44:09.896Z,57.22
2023-02-21T03:45:11.596Z,57.50
2023-02-21T03:46:13.197Z,57.56
2023-02-21T03:47:14.854Z,57.52
2023-02-21T03:48:26.200Z,57.79
2023-02-21T03:49:32.739Z,57.72
2023-02-21T03:50:34.225Z,57.85
2023-02-21T03:51:35.689Z,58.50
2023-02-21T03:52:37.484Z,58.67
2023-02-21T03:53:38.994Z,58.51
2023-02-21T03:54:40.808Z,58.38
2023-02-21T03:55:42.288Z,58.96
2023-02-21T03:56:43.815Z,58.20
2023-02-21T03:57:45.313Z,58.88
2023-02-21T03:58:46.805Z,59.16
2023-02-21T03:59:48.358Z,58.67
2023-02-21T04:00:51.548Z,58.43
2023-02-21T04:01:53.141Z,58.58
2023-02-21T04:02:55.130Z,58.43
2023-02-21T04:03:56.663Z,58.36
2023-02-21T04:04:58.144Z,58.17
2023-02-21T04:05:59.702Z,58.05
2023-02-21T04:07:01.213Z,58.31
2023-02-21T04:08:02.952Z,57.60
2023-02-21T04:09:04.540Z,58.03
2023-02-21T04:10:06.444Z,57.74
2023-02-21T04:11:08.291Z,58.32
2023-02-21T04:12:09.971Z,58.03
2023-02-21T04:13:11.613Z,57.78
2023-02-21T04:14:13.614Z,58.43
2023-02-21T04:15:15.290Z,57.72
2023-02-21T04:16:16.991Z,58.69
2023-02-21T04:17:18.708Z,58.88
2023-02-21T04:18:20.220Z,59.02
2023-02-21T04:19:21.761Z,58.53
2023-02-21T04:20:23.237Z,59.07
2023-02-21T04:21:24.717Z,58.72
2023-02-21T04:22:26.214Z,58.83
2023-02-21T04:23:27.746Z,58.55
2023-02-21T04:24:29.250Z,59.15
2023-02-21T04:25:30.730Z,58.99
2023-02-21T04:26:32.238Z,58.28
2023-02-21T04:27:34.860Z,58.31
2023-02-21T04:28:36.418Z,59.16
2023-02-21T04:29:38.153Z,58.57
2023-02-21T04:30:39.773Z,58.79
2023-02-21T04:31:41.452Z,58.35
2023-02-21T04:32:43.114Z,58.79
2023-02-21T04:33:44.901Z,57.76
2023-02-21T04:34:46.438Z,58.13
2023-02-21T04:35:48.822Z,57.44
2023-02-21T04:36:50.344Z,57.79
2023-02-21T04:37:51.899Z,58.49
2023-02-21T04:38:53.482Z,58.66
2023-02-21T04:39:54.971Z,58.29
2023-02-21T04:40:56.457Z,58.02
2023-02-21T04:41:58.084Z,58.16
2023-02-21T04:42:59.628Z,58.15
2023-02-21T04:44:01.139Z,57.49
2023-02-21T04:45:03.167Z,57.65
2023-02-21T04:46:04.839Z,57.56
2023-02-21T04:47:06.421Z,57.30
2023-02-21T04:48:07.924Z,57.65
2023-02-21T04:49:10.410Z,57.31
2023-02-21T04:50:11.956Z,57.36
2023-02-21T04:51:15.411Z,58.33
2023-02-21T04:52:20.193Z,57.21
2023-02-21T04:53:22.024Z,57.23
2023-02-21T04:54:23.517Z,57.96
2023-02-21T04:55:25.024Z,57.04
2023-02-21T04:56:28.106Z,57.54
2023-02-21T04:57:29.683Z,57.03
2023-02-21T04:58:36.453Z,57.63
2023-02-21T04:59:45.891Z,58.03
2023-02-21T05:00:47.469Z,57.27
2023-02-21T05:01:49.028Z,57.78
2023-02-21T05:02:50.853Z,57.17
2023-02-21T05:03:52.421Z,57.83
2023-02-21T05:04:54.005Z,57.99
2023-02-21T05:05:55.504Z,56.83
2023-02-21T05:06:59.167Z,57.88
2023-02-21T05:08:00.959Z,57.76
2023-02-21T05:09:02.501Z,57.46
2023-02-21T05:10:05.542Z,57.56
2023-02-21T05:11:08.818Z,56.15
2023-02-21T05:12:12.053Z,56.56
2023-02-21T05:13:14.663Z,56.46
2023-02-21T05:14:18.297Z,56.64
2023-02-21T05:15:19.789Z,56.49
2023-02-21T05:16:21.397Z,56.51
2023-02-21T05:17:22.988Z,55.90
2023-02-21T05:18:28.673Z,57.13
2023-02-21T05:19:31.237Z,57.18
2023-02-21T05:20:32.761Z,57.20
2023-02-21T05:21:36.008Z,56.35
2023-02-21T05:22:40.701Z,56.60
2023-02-21T05:23:43.016Z,56.57
2023-02-21T05:24:44.514Z,56.77
2023-02-21T05:25:46.008Z,56.15
2023-02-21T05:26:47.552Z,56.11
2023-02-21T05:27:50.128Z,55.75
2023-02-21T05:28:52.549Z,56.12
2023-02-21T05:29:54.098Z,56.35
2023-02-21T05:30:56.008Z,56.08
2023-02-21T05:31:57.645Z,57.08
2023-02-21T05:32:59.454Z,57.18
2023-02-21T05:34:00.954Z,56.66
2023-02-21T05:35:02.507Z,57.48
2023-02-21T05:36:04.311Z,56.76
2023-02-21T05:37:05.803Z,56.82
2023-02-21T05:38:07.581Z,57.91
2023-02-21T05:39:09.266Z,57.87
2023-02-21T05:40:12.665Z,58.09
2023-02-21T05:41:15.003Z,57.95
2023-02-21T05:42:16.747Z,58.22
2023-02-21T05:43:18.341Z,57.69
2023-02-21T05:44:19.842Z,57.31
2023-02-21T05:45:21.410Z,57.93
2023-02-21T05:46:26.368Z,57.12
2023-02-21T05:47:27.908Z,57.34
2023-02-21T05:48:29.750Z,57.81
2023-02-21T05:49:31.453Z,56.99
2023-02-21T05:50:32.966Z,56.38
2023-02-21T05:51:38.712Z,56.55
2023-02-21T05:52:40.216Z,56.79
2023-02-21T05:53:41.733Z,57.03
2023-02-21T05:54:43.810Z,57.34
2023-02-21T05:55:45.283Z,56.72
2023-02-21T05:56:47.920Z,57.56
2023-02-21T05:57:49.780Z,57.32
2023-02-21T05:58:54.406Z,57.61
2023-02-21T05:59:55.907Z,57.30
2023-02-21T06:00:57.414Z,56.77
2023-02-21T06:01:58.979Z,58.16
2023-02-21T06:03:03.707Z,57.95
2023-02-21T06:04:07.647Z,58.08
2023-02-21T06:05:09.161Z,58.08
2023-02-21T06:06:10.659Z,57.15
2023-02-21T06:07:12.183Z,57.82
2023-02-21T06:08:14.153Z,56.78
2023-02-21T06:09:15.657Z,57.24
2023-02-21T06:10:17.374Z,56.90
2023-02-21T06:11:28.016Z,56.75
2023-02-21T06:12:29.882Z,57.44
2023-02-21T06:13:32.963Z,56.39
2023-02-21T06:14:34.627Z,56.37
2023-02-21T06:15:36.137Z,57.22
2023-02-21T06:16:38.435Z,57.22
2023-02-21T06:17:40.935Z,57.21
2023-02-21T06:18:42.458Z,56.89
2023-02-21T06:19:43.948Z,56.70
2023-02-21T06:20:45.521Z,56.69
2023-02-21T06:21:47.165Z,56.21
2023-02-21T06:22:49.792Z,55.67
2023-02-21T06:23:51.346Z,56.54
2023-02-21T06:24:52.836Z,55.71
2023-02-21T06:25:54.410Z,56.42
2023-02-21T06:26:55.912Z,56.70
2023-02-21T06:27:57.771Z,56.38
2023-02-21T06:28:59.432Z,56.00
2023-02-21T06:30:00.983Z,56.26
2023-02-21T06:31:03.758Z,56.21
2023-02-21T06:32:05.555Z,55.58
2023-02-21T06:33:07.111Z,55.88
2023-02-21T06:34:08.709Z,55.86
2023-02-21T06:35:10.257Z,56.29
2023-02-21T06:36:17.267Z,56.15
2023-02-21T06:37:19.288Z,56.24
2023-02-21T06:38:20.907Z,56.07
2023-02-21T06:39:23.126Z,56.50
2023-02-21T06:40:24.783Z,55.92
2023-02-21T06:41:28.484Z,55.93
2023-02-21T06:42:30.374Z,56.17
2023-02-21T06:43:31.900Z,56.02
2023-02-21T06:44:33.434Z,56.50
2023-02-21T06:45:34.942Z,56.07
2023-02-21T06:46:38.131Z,55.60
2023-02-21T06:47:40.108Z,56.07
2023-02-21T06:48:41.628Z,55.32
2023-02-21T06:49:43.250Z,55.63
2023-02-21T06:50:44.970Z,55.37
2023-02-21T06:51:46.819Z,55.12
2023-02-21T06:52:48.390Z,55.38
2023-02-21T06:53:50.384Z,55.53
2023-02-21T06:54:51.884Z,55.63
2023-02-21T06:55:53.383Z,55.48
2023-02-21T06:56:54.954Z,55.69
2023-02-21T06:57:56.460Z,56.34
2023-02-21T06:58:58.040Z,55.72
2023-02-21T06:59:59.582Z,55.83
2023-02-21T07:01:01.131Z,56.07
2023-02-21T07:02:05.180Z,55.75
2023-02-21T07:03:06.711Z,55.50
2023-02-21T07:04:08.249Z,55.57
2023-02-21T07:05:09.888Z,55.88
2023-02-21T07:06:11.500Z,55.84
2023-02-21T07:07:13.508Z,54.97
2023-02-21T07:08:15.046Z,55.24
2023-02-21T07:09:17.380Z,55.97
2023-02-21T07:10:22.171Z,55.78
2023-02-21T07:11:23.701Z,55.36
2023-02-21T07:12:25.670Z,55.64
2023-02-21T07:13:27.181Z,55.60
2023-02-21T07:14:28.796Z,56.04
2023-02-21T07:15:30.342Z,55.29
2023-02-21T07:16:32.208Z,55.21
2023-02-21T07:17:33.714Z,55.23
2023-02-21T07:18:35.242Z,55.32
2023-02-21T07:19:36.734Z,55.24
2023-02-21T07:21:41.710Z,55.38
2023-02-21T07:22:43.186Z,55.62
2023-02-21T07:23:45.062Z,55.92
2023-02-21T07:24:46.643Z,55.54
2023-02-21T07:25:48.146Z,55.10
2023-02-21T07:26:49.690Z,55.06
2023-02-21T07:27:52.798Z,54.87
2023-02-21T07:28:54.475Z,55.58
2023-02-21T07:29:56.112Z,55.14
2023-02-21T07:30:57.669Z,55.68
2023-02-21T07:31:59.902Z,55.34
2023-02-21T07:33:01.523Z,55.45
2023-02-21T07:34:03.022Z,55.26
2023-02-21T07:35:04.825Z,55.73
2023-02-21T07:36:07.046Z,55.47
2023-02-21T07:37:08.614Z,55.28
2023-02-21T07:38:10.119Z,55.39
2023-02-21T07:39:11.982Z,55.37
2023-02-21T07:40:13.484Z,55.45
2023-02-21T07:41:16.010Z,55.58
2023-02-21T07:42:17.690Z,55.47
2023-02-21T07:43:19.162Z,55.61
2023-02-21T07:44:20.732Z,55.43
2023-02-21T07:45:22.257Z,54.95
2023-02-21T07:46:26.980Z,54.98
2023-02-21T07:47:28.522Z,55.01
2023-02-21T07:48:30.050Z,55.05
2023-02-21T07:49:31.697Z,55.29
2023-02-21T07:50:33.275Z,54.67
2023-02-21T07:51:36.136Z,54.64
2023-02-21T07:52:37.952Z,54.93
2023-02-21T07:53:39.816Z,54.76
2023-02-21T07:54:41.422Z,55.18
2023-02-21T07:55:42.981Z,54.69
2023-02-21T07:56:45.961Z,55.12
2023-02-21T07:57:47.389Z,53.90
2023-02-21T07:58:48.941Z,54.99
2023-02-21T07:59:50.456Z,55.67
2023-02-21T08:00:52.655Z,55.75
2023-02-21T08:01:54.320Z,55.66
2023-02-21T08:02:55.864Z,55.86
2023-02-21T08:03:57.430Z,55.35
2023-02-21T08:04:59.035Z,55.71
2023-02-21T08:06:01.005Z,55.21
2023-02-21T08:07:03.055Z,54.86
2023-02-21T08:08:08.057Z,54.88
2023-02-21T08:09:09.548Z,54.74
2023-02-21T08:10:11.542Z,54.49
2023-02-21T08:11:13.958Z,54.66
2023-02-21T08:12:15.690Z,54.68
2023-02-21T08:13:17.235Z,55.01
2023-02-21T08:14:18.829Z,54.13
2023-02-21T08:15:20.362Z,54.42
2023-02-21T08:16:22.258Z,54.67
2023-02-21T08:17:23.759Z,54.20
2023-02-21T08:18:25.341Z,54.18
2023-02-21T08:19:26.853Z,53.85
2023-02-21T08:20:28.446Z,53.00
2023-02-21T08:21:29.970Z,52.87
2023-02-21T08:22:31.468Z,50.75
2023-02-21T08:23:33.013Z,49.65
2023-02-21T08:24:34.515Z,48.43
2023-02-21T08:25:36.036Z,47.29
2023-02-21T08:26:37.556Z,45.61
2023-02-21T08:27:40.785Z,44.51
2023-02-21T08:28:42.344Z,43.85
2023-02-21T08:29:43.939Z,43.24
2023-02-21T08:30:45.829Z,43.05
2023-02-21T08:31:47.549Z,43.55
2023-02-21T08:32:49.570Z,42.98
2023-02-21T08:33:51.049Z,41.81
2023-02-21T08:34:52.598Z,41.79
2023-02-21T08:35:54.446Z,41.95
2023-02-21T08:36:56.318Z,42.21
2023-02-21T08:38:03.117Z,42.09
2023-02-21T08:39:04.876Z,42.81
2023-02-21T08:40:06.824Z,42.06
2023-02-21T08:41:10.726Z,42.13
2023-02-21T08:42:12.961Z,42.84
2023-02-21T08:43:14.668Z,42.92
2023-02-21T08:44:16.815Z,43.10
2023-02-21T08:45:19.291Z,43.16
2023-02-21T08:46:20.951Z,43.01
2023-02-21T08:47:22.531Z,43.34
2023-02-21T08:48:24.039Z,43.94
2023-02-21T08:49:25.670Z,44.40
2023-02-21T08:50:27.689Z,44.80
2023-02-21T08:51:30.430Z,45.19
2023-02-21T08:52:31.950Z,45.72
2023-02-21T08:53:33.459Z,46.01
2023-02-21T08:54:35.033Z,46.37
2023-02-21T08:55:36.860Z,46.23
2023-02-21T08:56:38.381Z,46.72
2023-02-21T08:57:39.946Z,46.77
2023-02-21T08:58:41.453Z,46.69
2023-02-21T08:59:44.994Z,46.75
2023-02-21T09:00:46.919Z,46.75
2023-02-21T09:01:48.451Z,46.67
2023-02-21T09:02:50.978Z,46.57
2023-02-21T09:03:52.446Z,46.45
2023-02-21T09:04:54.217Z,46.52
2023-02-21T09:05:56.276Z,46.69
2023-02-21T09:06:57.946Z,46.88
2023-02-21T09:08:01.392Z,47.18
2023-02-21T09:09:03.205Z,46.97
2023-02-21T09:10:05.175Z,47.24
2023-02-21T09:11:07.192Z,47.86
2023-02-21T09:12:08.829Z,47.75
2023-02-21T09:13:10.474Z,47.89
2023-02-21T09:14:12.034Z,48.46
2023-02-21T09:15:16.430Z,48.19
2023-02-21T09:16:17.976Z,48.92
2023-02-21T09:17:19.490Z,48.39
2023-02-21T09:18:21.249Z,48.74
2023-02-21T09:19:22.730Z,49.26
2023-02-21T09:20:25.568Z,48.99
2023-02-21T09:21:27.808Z,48.68
2023-02-21T09:22:31.543Z,49.33
2023-02-21T09:23:33.298Z,49.33
2023-02-21T09:24:35.023Z,49.04
2023-02-21T09:25:36.807Z,49.38
2023-02-21T09:26:38.473Z,49.86
2023-02-21T09:27:40.400Z,49.54
2023-02-21T09:28:43.520Z,49.74
2023-02-21T09:29:46.899Z,50.19
2023-02-21T09:30:49.037Z,50.54
2023-02-21T09:31:50.648Z,50.36
2023-02-21T09:32:52.285Z,50.57
2023-02-21T09:33:53.846Z,50.15
2023-02-21T09:34:55.452Z,50.60
2023-02-21T09:35:57.297Z,51.10
2023-02-21T09:36:59.705Z,50.29
2023-02-21T09:38:01.403Z,50.01
2023-02-21T09:39:06.412Z,50.47
2023-02-21T09:40:44.511Z,50.56
2023-02-21T09:41:46.572Z,49.76
2023-02-21T09:42:50.226Z,50.69
2023-02-21T09:43:53.386Z,50.68
2023-02-21T09:44:54.962Z,50.35
2023-02-21T09:45:58.517Z,50.93
2023-02-21T09:47:04.902Z,50.83
2023-02-21T09:48:14.294Z,51.02
2023-02-21T09:49:26.996Z,51.15
2023-02-21T09:50:31.532Z,51.27
2023-02-21T09:51:33.147Z,50.99
2023-02-21T09:52:36.581Z,51.00
2023-02-21T09:53:40.620Z,51.42
2023-02-21T09:54:44.664Z,51.91
2023-02-21T09:55:46.487Z,51.35
2023-02-21T09:56:47.950Z,50.76
2023-02-21T09:57:49.429Z,50.70
2023-02-21T09:58:50.940Z,51.25
2023-02-21T09:59:52.456Z,51.13
2023-02-21T10:00:54.614Z,50.42
2023-02-21T10:02:05.835Z,50.38
2023-02-21T10:03:11.053Z,50.91
2023-02-21T10:04:40.155Z,51.06
2023-02-21T10:06:28.059Z,51.89
2023-02-21T10:07:35.636Z,51.70
2023-02-21T10:09:05.725Z,52.48
2023-02-21T10:10:25.796Z,52.58
2023-02-21T10:12:04.762Z,53.04
2023-02-21T10:13:23.881Z,52.86
2023-02-21T10:14:37.197Z,52.41
2023-02-21T10:16:04.640Z,52.31
2023-02-21T10:17:18.296Z,51.43
2023-02-21T10:18:25.693Z,50.07
2023-02-21T10:19:32.492Z,50.16
2023-02-21T10:20:43.238Z,51.31
2023-02-21T10:21:45.976Z,51.33
2023-02-21T10:22:48.043Z,50.89
2023-02-21T10:23:50.820Z,50.78
2023-02-21T10:24:52.457Z,51.68
2023-02-21T10:25:59.115Z,51.38
2023-02-21T10:27:08.025Z,51.79
2023-02-21T10:28:09.690Z,52.08
2023-02-21T10:29:21.856Z,51.39
2023-02-21T10:30:30.865Z,51.17
2023-02-21T10:31:35.644Z,51.54
2023-02-21T10:32:37.812Z,51.28
2023-02-21T10:33:39.544Z,51.21
2023-02-21T10:34:46.286Z,51.31
2023-02-21T10:35:48.773Z,51.58
2023-02-21T10:36:50.885Z,51.66
2023-02-21T10:37:57.247Z,51.46
2023-02-21T10:39:03.699Z,51.80
2023-02-21T10:40:20.431Z,51.91
2023-02-21T10:41:25.515Z,51.56
2023-02-21T10:42:51.208Z,52.06
2023-02-21T10:43:55.203Z,51.66
2023-02-21T10:44:57.404Z,51.74
2023-02-21T10:46:17.253Z,52.20
2023-02-21T10:47:22.425Z,51.21
2023-02-21T10:48:25.364Z,52.01
2023-02-21T10:49:40.577Z,50.89
2023-02-21T10:50:44.580Z,51.37
2023-02-21T10:51:46.439Z,51.37
2023-02-21T10:52:49.407Z,52.28
2023-02-21T10:53:52.749Z,51.16
2023-02-21T10:55:20.059Z,50.81
2023-02-21T10:56:28.175Z,51.34
2023-02-21T10:57:31.520Z,51.46
2023-02-21T10:58:33.142Z,51.67
2023-02-21T10:59:36.620Z,51.99
2023-02-21T11:00:39.890Z,52.66
2023-02-21T11:01:46.229Z,52.55
2023-02-21T11:02:47.906Z,52.09
2023-02-21T11:03:51.184Z,52.69
2023-02-21T11:04:53.230Z,52.03
2023-02-21T11:05:57.902Z,52.11
2023-02-21T11:07:05.702Z,51.70
2023-02-21T11:08:10.243Z,51.06
2023-02-21T11:09:27.060Z,51.45
2023-02-21T11:10:41.621Z,51.68
2023-02-21T11:11:43.278Z,51.24
2023-02-21T11:12:45.389Z,51.57
2023-02-21T11:13:46.957Z,52.18
2023-02-21T11:14:51.257Z,51.47
2023-02-21T11:16:11.690Z,51.80
2023-02-21T11:17:23.518Z,51.48
2023-02-21T11:18:25.617Z,51.08
2023-02-21T11:19:27.277Z,51.24
2023-02-21T11:20:28.781Z,51.52
2023-02-21T11:21:30.724Z,51.55
2023-02-21T11:22:35.438Z,51.01
2023-02-21T11:23:37.171Z,51.10
2023-02-21T11:24:55.753Z,51.29
2023-02-21T11:26:11.424Z,51.18
2023-02-21T11:27:13.065Z,50.96
2023-02-21T11:28:14.763Z,50.79
2023-02-21T11:29:18.993Z,51.13
2023-02-21T11:30:24.524Z,51.29
2023-02-21T11:31:30.771Z,51.36
2023-02-21T11:32:34.781Z,51.52
2023-02-21T11:33:37.990Z,52.19
2023-02-21T11:34:45.030Z,51.96
2023-02-21T11:35:47.692Z,51.74
2023-02-21T11:36:49.678Z,51.86
2023-02-21T11:37:54.922Z,51.32
2023-02-21T11:39:00.351Z,52.06
2023-02-21T11:40:01.996Z,52.07
2023-02-21T11:41:30.544Z,51.52
2023-02-21T11:42:34.591Z,50.97
2023-02-21T11:43:36.096Z,51.25
2023-02-21T11:44:38.971Z,51.16
2023-02-21T11:45:41.658Z,50.43
2023-02-21T11:46:46.628Z,50.56
2023-02-21T11:48:01.608Z,50.88
2023-02-21T11:49:12.092Z,50.93
2023-02-21T11:50:26.868Z,50.96
2023-02-21T11:51:48.182Z,51.15
2023-02-21T11:53:04.440Z,50.48
2023-02-21T11:54:06.858Z,50.67
2023-02-21T11:55:15.989Z,52.21
2023-02-21T11:56:20.266Z,51.83
2023-02-21T11:57:40.636Z,51.65
2023-02-21T11:58:49.096Z,51.30
2023-02-21T12:00:09.214Z,51.35
2023-02-21T12:01:17.570Z,51.12
2023-02-21T12:02:50.209Z,51.06
2023-02-21T12:04:26.505Z,51.14
2023-02-21T12:05:28.179Z,50.45
2023-02-21T12:06:45.365Z,50.49
2023-02-21T12:08:04.720Z,51.82
2023-02-21T12:09:30.057Z,53.92
2023-02-21T12:10:53.057Z,52.23
2023-02-21T12:12:12.385Z,51.88
2023-02-21T12:13:35.046Z,51.96
2023-02-21T12:14:54.692Z,51.57
2023-02-21T12:16:22.009Z,51.25
2023-02-21T12:17:38.142Z,50.24
2023-02-21T12:18:48.563Z,50.51
2023-02-21T12:19:56.525Z,49.98
2023-02-21T12:21:13.003Z,49.29
2023-02-21T12:22:26.361Z,48.80
2023-02-21T12:23:53.752Z,49.24
2023-02-21T12:24:58.127Z,49.13
2023-02-21T12:26:07.241Z,49.26
2023-02-21T12:27:20.299Z,49.61
2023-02-21T12:28:34.557Z,49.55
2023-02-21T12:29:55.023Z,49.07
2023-02-21T12:31:18.136Z,49.47
2023-02-21T12:32:38.625Z,49.19
2023-02-21T12:33:48.426Z,49.34
2023-02-21T12:35:31.431Z,48.75
2023-02-21T12:36:45.256Z,48.19
2023-02-21T12:37:58.776Z,48.79
2023-02-21T12:39:28.677Z,48.49
2023-02-21T12:40:30.274Z,47.94
2023-02-21T12:42:09.068Z,48.03
2023-02-21T12:43:42.921Z,47.89
2023-02-21T12:44:53.367Z,48.11
2023-02-21T12:46:12.769Z,48.10
2023-02-21T12:47:26.770Z,48.46
2023-02-21T12:48:43.256Z,47.82
2023-02-21T12:49:54.877Z,48.45
2023-02-21T12:51:00.297Z,49.03
2023-02-21T12:52:15.414Z,49.43
2023-02-21T12:53:30.139Z,49.18
2023-02-21T12:54:45.225Z,49.19
2023-02-21T12:55:49.041Z,48.78
2023-02-21T12:56:56.309Z,48.00
2023-02-21T12:58:20.969Z,47.37
2023-02-21T12:59:55.728Z,46.86
2023-02-21T13:01:22.012Z,46.53
2023-02-21T13:03:00.850Z,47.19
2023-02-21T13:04:53.371Z,46.22
2023-02-21T13:06:01.421Z,46.22
2023-02-21T13:07:27.521Z,46.33
2023-02-21T13:08:34.550Z,46.16
2023-02-21T13:09:43.722Z,46.71
2023-02-21T13:10:55.944Z,47.06
2023-02-21T13:12:09.804Z,46.81
2023-02-21T13:13:16.344Z,46.27
2023-02-21T13:14:20.704Z,46.78
2023-02-21T13:15:23.832Z,46.42
2023-02-21T13:16:25.500Z,46.29
2023-02-21T13:17:27.129Z,46.82
2023-02-21T13:19:02.128Z,46.43
2023-02-21T13:20:09.855Z,45.96
2023-02-21T13:21:45.458Z,45.83
2023-02-21T13:23:24.196Z,45.68
2023-02-21T13:24:44.037Z,45.47
2023-02-21T13:25:57.751Z,45.50
2023-02-21T13:27:44.225Z,45.08
2023-02-21T13:28:46.645Z,44.43
2023-02-21T13:29:50.015Z,44.76
2023-02-21T13:30:52.708Z,44.67
2023-02-21T13:32:11.294Z,44.99
2023-02-21T13:33:33.823Z,45.07
2023-02-21T13:34:53.169Z,45.17
2023-02-21T13:35:58.140Z,46.07
2023-02-21T13:37:05.070Z,45.96
2023-02-21T13:38:08.643Z,45.74
2023-02-21T13:39:13.984Z,46.23
2023-02-21T13:40:24.273Z,49.66
2023-02-21T13:41:28.571Z,49.25
2023-02-21T13:42:30.089Z,49.17
2023-02-21T13:43:33.160Z,48.62
2023-02-21T13:44:38.444Z,47.91
2023-02-21T13:45:40.021Z,47.98
2023-02-21T13:46:41.543Z,48.28
2023-02-21T13:48:05.905Z,47.95
2023-02-21T13:49:47.737Z,47.95
2023-02-21T13:50:50.837Z,47.77
2023-02-21T13:51:53.249Z,48.30
2023-02-21T13:53:08.209Z,48.42
2023-02-21T13:54:12.288Z,47.80
2023-02-21T13:55:19.834Z,47.78
2023-02-21T13:56:21.426Z,48.13
2023-02-21T13:57:33.405Z,48.03
2023-02-21T13:58:38.612Z,47.29
2023-02-21T13:59:40.461Z,47.02
2023-02-21T14:00:41.858Z,47.04
2023-02-21T14:01:43.472Z,46.78
2023-02-21T14:02:55.662Z,46.19
2023-02-21T14:03:57.626Z,45.83
2023-02-21T14:05:01.454Z,45.77
2023-02-21T14:06:08.976Z,45.26
2023-02-21T14:07:10.491Z,45.02
2023-02-21T14:08:18.604Z,45.25
2023-02-21T14:09:20.202Z,45.33
2023-02-21T14:10:36.937Z,45.24
2023-02-21T14:11:43.758Z,45.34
2023-02-21T14:12:45.355Z,45.06
2023-02-21T14:14:08.421Z,45.31
2023-02-21T14:15:10.648Z,44.23
2023-02-21T14:16:15.133Z,44.03
2023-02-21T14:17:17.016Z,43.32
2023-02-21T14:18:29.942Z,43.32
2023-02-21T14:19:42.986Z,42.99
2023-02-21T14:20:47.221Z,42.37
2023-02-21T14:21:49.426Z,41.79
2023-02-21T14:22:53.961Z,41.11
2023-02-21T14:24:01.443Z,40.69
2023-02-21T14:25:21.220Z,40.11
2023-02-21T14:26:50.761Z,39.92
2023-02-21T14:27:55.161Z,39.39
2023-02-21T14:28:56.674Z,39.19
2023-02-21T14:30:01.287Z,39.16
2023-02-21T14:31:03.184Z,38.91
2023-02-21T14:32:04.758Z,38.63
2023-02-21T14:33:25.292Z,38.31
2023-02-21T14:34:54.101Z,37.53
2023-02-21T14:36:05.541Z,37.57
2023-02-21T14:37:32.083Z,37.16
2023-02-21T14:38:37.697Z,37.68
2023-02-21T14:39:42.689Z,37.44
2023-02-21T14:41:28.285Z,37.54
2023-02-21T14:42:41.196Z,37.14